createdAt,value
2022-11-18T00:00:14.678Z,100284.53
2022-11-18T00:01:19.696Z,100284.84
2022-11-18T00:02:22.010Z,100281.28
2022-11-18T00:03:25.487Z,100277.47
2022-11-18T00:04:28.843Z,100278.06
2022-11-18T00:05:32.437Z,100281.53
2022-11-18T00:06:36.262Z,100280.56
2022-11-18T00:07:38.665Z,100280.47
2022-11-18T00:08:42.557Z,100281.53
2022-11-18T00:09:45.050Z,100285.75
2022-11-18T00:10:48.740Z,100279.63
2022-11-18T00:12:14.893Z,100285.59
2022-11-18T00:13:36.390Z,100284.09
2022-11-18T00:14:38.834Z,100286.94
2022-11-18T00:15:42.203Z,100287.59
2022-11-18T00:16:44.555Z,100288.81
2022-11-18T00:17:48.177Z,100285.38
2022-11-18T00:18:50.720Z,100286.59
2022-11-18T00:19:54.014Z,100288.97
2022-11-18T00:21:01.430Z,100290.09
2022-11-18T00:22:05.466Z,100288.44
2022-11-18T00:23:08.153Z,100285.16
2022-11-18T00:24:11.833Z,100283.69
2022-11-18T00:25:14.361Z,100291.16
2022-11-18T00:26:18.054Z,100295.38
2022-11-18T00:27:20.529Z,100292.16
2022-11-18T00:28:24.070Z,100291.66
2022-11-18T00:29:27.104Z,100301.38
2022-11-18T00:30:30.637Z,100291.06
2022-11-18T00:31:33.084Z,100290.38
2022-11-18T00:32:36.430Z,100290.50
2022-11-18T00:33:39.322Z,100285.38
2022-11-18T00:34:43.691Z,100288.72
2022-11-18T00:35:53.853Z,100296.53
2022-11-18T00:36:58.701Z,100298.97
2022-11-18T00:38:01.081Z,100295.00
2022-11-18T00:39:04.484Z,100291.38
2022-11-18T00:40:08.170Z,100299.81
2022-11-18T00:41:12.974Z,100287.47
2022-11-18T00:42:33.875Z,100294.66
2022-11-18T00:43:36.808Z,100290.78
2022-11-18T00:44:40.227Z,100290.84
2022-11-18T00:45:43.320Z,100284.78
2022-11-18T00:46:46.665Z,100288.78
2022-11-18T00:47:49.780Z,100295.72
2022-11-18T00:48:53.319Z,100291.28
2022-11-18T00:49:55.749Z,100290.56
2022-11-18T00:51:00.992Z,100290.09
2022-11-18T00:52:05.730Z,100298.81
2022-11-18T00:53:09.007Z,100295.94
2022-11-18T00:54:11.549Z,100301.78
2022-11-18T00:55:14.931Z,100298.78
2022-11-18T00:56:17.246Z,100307.03
2022-11-18T00:57:20.785Z,100308.72
2022-11-18T00:58:23.354Z,100304.09
2022-11-18T00:59:26.946Z,100303.91
2022-11-18T01:00:29.503Z,100303.97
2022-11-18T01:01:33.229Z,100299.00
2022-11-18T01:02:35.614Z,100303.47
2022-11-18T01:03:38.992Z,100303.66
2022-11-18T01:04:41.214Z,100302.34
2022-11-18T01:05:44.841Z,100299.53
2022-11-18T01:06:47.478Z,100296.25
2022-11-18T01:07:52.291Z,100294.94
2022-11-18T01:08:54.579Z,100292.72
2022-11-18T01:09:58.647Z,100297.22
2022-11-18T01:11:21.291Z,100292.78
2022-11-18T01:12:42.148Z,100298.16
2022-11-18T01:13:44.654Z,100292.59
2022-11-18T01:14:48.653Z,100297.91
2022-11-18T01:15:54.649Z,100289.63
2022-11-18T01:16:57.715Z,100301.56
2022-11-18T01:18:01.161Z,100294.16
2022-11-18T01:19:03.579Z,100301.53
2022-11-18T01:20:07.983Z,100308.34
2022-11-18T01:21:10.298Z,100311.44
2022-11-18T01:22:13.891Z,100315.81
2022-11-18T01:23:19.572Z,100322.81
2022-11-18T01:24:23.470Z,100325.94
2022-11-18T01:25:25.893Z,100318.72
2022-11-18T01:26:29.340Z,100327.97
2022-11-18T01:27:31.912Z,100329.69
2022-11-18T01:28:35.374Z,100328.47
2022-11-18T01:29:37.846Z,100329.81
2022-11-18T01:30:42.863Z,100331.03
2022-11-18T01:32:09.332Z,100332.38
2022-11-18T01:33:10.174Z,100332.81
2022-11-18T01:34:13.000Z,100336.94
2022-11-18T01:35:16.830Z,100338.31
2022-11-18T01:36:21.180Z,100341.19
2022-11-18T01:37:24.796Z,100344.19
2022-11-18T01:38:29.156Z,100341.84
2022-11-18T01:39:32.734Z,100343.16
2022-11-18T01:40:35.719Z,100343.28
2022-11-18T01:41:39.005Z,100340.41
2022-11-18T01:42:41.309Z,100338.69
2022-11-18T01:43:54.000Z,100340.66
2022-11-18T01:45:11.074Z,100337.03
2022-11-18T01:46:14.404Z,100343.50
2022-11-18T01:47:17.225Z,100342.47
2022-11-18T01:48:24.914Z,100347.47
2022-11-18T01:49:28.094Z,100347.66
2022-11-18T01:50:32.356Z,100346.03
2022-11-18T01:51:39.527Z,100349.75
2022-11-18T01:52:48.773Z,100351.34
2022-11-18T01:54:00.249Z,100348.72
2022-11-18T01:55:09.242Z,100351.97
2022-11-18T01:56:15.252Z,100356.53
2022-11-18T01:57:23.761Z,100354.41
2022-11-18T01:58:32.302Z,100358.94
2022-11-18T01:59:37.700Z,100355.91
2022-11-18T02:00:41.427Z,100359.78
2022-11-18T02:01:44.277Z,100352.06
2022-11-18T02:02:47.952Z,100359.00
2022-11-18T02:03:51.785Z,100352.50
2022-11-18T02:04:57.916Z,100356.66
2022-11-18T02:06:00.771Z,100359.97
2022-11-18T02:07:04.470Z,100357.13
2022-11-18T02:08:08.405Z,100360.69
2022-11-18T02:09:13.885Z,100361.81
2022-11-18T02:10:20.356Z,100359.59
2022-11-18T02:11:41.217Z,100367.00
2022-11-18T02:12:45.383Z,100357.13
2022-11-18T02:13:47.869Z,100356.34
2022-11-18T02:15:35.125Z,100356.19
2022-11-18T02:16:52.809Z,100360.94
2022-11-18T02:18:03.148Z,100365.34
2022-11-18T02:19:15.899Z,100363.50
2022-11-18T02:20:42.766Z,100367.69
2022-11-18T02:21:58.009Z,100363.56
2022-11-18T02:23:30.063Z,100364.81
2022-11-18T02:24:42.356Z,100372.63
2022-11-18T02:26:01.223Z,100366.75
2022-11-18T02:27:39.576Z,100366.25
2022-11-18T02:28:59.600Z,100371.19
2022-11-18T02:30:08.353Z,100370.38
2022-11-18T02:31:17.614Z,100374.38
2022-11-18T02:32:26.355Z,100368.47
2022-11-18T02:33:37.468Z,100371.84
2022-11-18T02:34:50.270Z,100374.19
2022-11-18T02:35:57.439Z,100374.47
2022-11-18T02:37:05.191Z,100372.44
2022-11-18T02:38:11.776Z,100376.28
2022-11-18T02:39:21.251Z,100374.63
2022-11-18T02:40:28.251Z,100373.69
2022-11-18T02:41:35.826Z,100381.66
2022-11-18T02:42:41.050Z,100376.53
2022-11-18T02:43:48.541Z,100377.63
2022-11-18T02:44:57.957Z,100380.00
2022-11-18T02:46:05.287Z,100375.63
2022-11-18T02:47:12.170Z,100381.50
2022-11-18T02:48:16.412Z,100377.16
2022-11-18T02:49:22.874Z,100376.25
2022-11-18T02:50:28.711Z,100384.59
2022-11-18T02:51:32.202Z,100375.75
2022-11-18T02:52:38.877Z,100378.13
2022-11-18T02:53:43.268Z,100380.28
2022-11-18T02:54:50.142Z,100384.78
2022-11-18T02:55:53.876Z,100376.22
2022-11-18T02:56:57.997Z,100378.03
2022-11-18T02:58:02.833Z,100373.16
2022-11-18T02:59:06.578Z,100374.28
2022-11-18T03:00:11.601Z,100378.38
2022-11-18T03:01:21.620Z,100380.84
2022-11-18T03:02:24.057Z,100375.66
2022-11-18T03:03:30.340Z,100379.94
2022-11-18T03:04:34.931Z,100372.22
2022-11-18T03:05:44.237Z,100373.63
2022-11-18T03:06:56.647Z,100386.41
2022-11-18T03:08:08.471Z,100376.31
2022-11-18T03:09:15.693Z,100377.44
2022-11-18T03:10:23.318Z,100374.81
2022-11-18T03:11:28.917Z,100372.22
2022-11-18T03:12:40.649Z,100373.41
2022-11-18T03:13:57.132Z,100370.63
2022-11-18T03:15:10.631Z,100377.56
2022-11-18T03:16:20.025Z,100367.34
2022-11-18T03:17:33.108Z,100366.53
2022-11-18T03:18:42.889Z,100370.84
2022-11-18T03:20:00.663Z,100353.31
2022-11-18T03:21:08.555Z,100357.47
2022-11-18T03:22:19.453Z,100361.41
2022-11-18T03:23:28.227Z,100360.06
2022-11-18T03:24:34.868Z,100360.06
2022-11-18T03:25:44.431Z,100357.16
2022-11-18T03:26:52.598Z,100358.94
2022-11-18T03:28:00.989Z,100347.53
2022-11-18T03:29:11.747Z,100357.47
2022-11-18T03:30:19.370Z,100361.28
2022-11-18T03:31:29.822Z,100363.94
2022-11-18T03:32:36.778Z,100363.56
2022-11-18T03:33:46.598Z,100355.97
2022-11-18T03:34:53.018Z,100354.00
2022-11-18T03:35:59.647Z,100349.66
2022-11-18T03:37:09.071Z,100349.41
2022-11-18T03:38:18.434Z,100347.63
2022-11-18T03:39:23.831Z,100350.22
2022-11-18T03:40:30.679Z,100346.81
2022-11-18T03:41:38.901Z,100352.63
2022-11-18T03:42:45.935Z,100353.09
2022-11-18T03:43:53.581Z,100350.91
2022-11-18T03:45:03.329Z,100357.56
2022-11-18T03:46:11.282Z,100361.28
2022-11-18T03:47:18.659Z,100359.81
2022-11-18T03:48:26.039Z,100368.53
2022-11-18T03:49:32.611Z,100367.94
2022-11-18T03:50:40.747Z,100373.66
2022-11-18T03:51:47.601Z,100365.22
2022-11-18T03:52:53.127Z,100363.16
2022-11-18T03:53:59.368Z,100375.53
2022-11-18T03:55:06.994Z,100378.22
2022-11-18T03:56:17.400Z,100381.38
2022-11-18T03:57:25.337Z,100385.56
2022-11-18T03:58:32.399Z,100400.03
2022-11-18T03:59:40.620Z,100394.00
2022-11-18T04:00:45.981Z,100391.34
2022-11-18T04:01:54.065Z,100391.84
2022-11-18T04:02:58.218Z,100394.28
2022-11-18T04:04:01.858Z,100398.97
2022-11-18T04:05:09.721Z,100395.81
2022-11-18T04:06:21.821Z,100388.41
2022-11-18T04:07:31.889Z,100397.34
2022-11-18T04:08:40.016Z,100388.63
2022-11-18T04:09:47.847Z,100386.78
2022-11-18T04:10:56.808Z,100398.69
2022-11-18T04:12:05.204Z,100391.56
2022-11-18T04:13:13.508Z,100387.38
2022-11-18T04:14:18.951Z,100386.84
2022-11-18T04:15:22.438Z,100389.94
2022-11-18T04:16:24.693Z,100389.94
2022-11-18T04:17:30.039Z,100383.78
2022-11-18T04:18:33.888Z,100381.63
2022-11-18T04:19:37.582Z,100377.09
2022-11-18T04:20:40.280Z,100376.28
2022-11-18T04:21:44.143Z,100377.31
2022-11-18T04:22:46.963Z,100378.88
2022-11-18T04:23:50.761Z,100382.00
2022-11-18T04:24:53.909Z,100382.91
2022-11-18T04:25:57.531Z,100380.50
2022-11-18T04:27:00.557Z,100382.88
2022-11-18T04:28:05.131Z,100385.91
2022-11-18T04:29:07.698Z,100387.72
2022-11-18T04:30:12.274Z,100385.06
2022-11-18T04:31:14.551Z,100390.63
2022-11-18T04:32:17.997Z,100391.16
2022-11-18T04:33:20.355Z,100391.41
2022-11-18T04:34:25.082Z,100391.16
2022-11-18T04:35:27.904Z,100389.63
2022-11-18T04:36:31.456Z,100393.59
2022-11-18T04:37:34.925Z,100387.88
2022-11-18T04:38:37.421Z,100394.19
2022-11-18T04:39:41.349Z,100392.88
2022-11-18T04:40:43.564Z,100401.38
2022-11-18T04:41:59.406Z,100394.72
2022-11-18T04:43:01.757Z,100400.28
2022-11-18T04:44:13.415Z,100399.97
2022-11-18T04:45:15.892Z,100399.94
2022-11-18T04:46:19.432Z,100398.44
2022-11-18T04:47:22.029Z,100402.28
2022-11-18T04:48:25.579Z,100401.06
2022-11-18T04:49:29.967Z,100402.38
2022-11-18T04:50:33.316Z,100401.84
2022-11-18T04:51:35.636Z,100407.59
2022-11-18T04:52:39.433Z,100405.13
2022-11-18T04:53:41.802Z,100408.31
2022-11-18T04:54:45.230Z,100408.31
2022-11-18T04:55:47.658Z,100405.19
2022-11-18T04:56:51.248Z,100405.19
2022-11-18T04:57:53.571Z,100401.69
2022-11-18T04:58:56.839Z,100398.19
2022-11-18T05:00:00.220Z,100401.31
2022-11-18T05:01:02.821Z,100399.97
2022-11-18T05:02:06.238Z,100397.53
2022-11-18T05:03:08.533Z,100398.91
2022-11-18T05:04:14.380Z,100400.50
2022-11-18T05:05:18.165Z,100398.63
2022-11-18T05:06:21.755Z,100394.63
2022-11-18T05:07:25.036Z,100393.25
2022-11-18T05:08:27.357Z,100404.34
2022-11-18T05:09:32.234Z,100408.50
2022-11-18T05:10:34.953Z,100405.31
2022-11-18T05:11:55.941Z,100410.91
2022-11-18T05:12:58.287Z,100415.50
2022-11-18T05:14:01.968Z,100409.19
2022-11-18T05:15:05.912Z,100408.72
2022-11-18T05:16:08.301Z,100413.44
2022-11-18T05:17:12.309Z,100415.28
2022-11-18T05:18:14.630Z,100414.47
2022-11-18T05:19:18.623Z,100412.94
2022-11-18T05:20:24.057Z,100417.78
2022-11-18T05:21:26.375Z,100422.75
2022-11-18T05:22:29.754Z,100415.81
2022-11-18T05:23:32.321Z,100416.66
2022-11-18T05:24:35.608Z,100420.63
2022-11-18T05:25:37.762Z,100415.25
2022-11-18T05:26:41.135Z,100419.19
2022-11-18T05:27:44.774Z,100414.44
2022-11-18T05:28:47.622Z,100419.19
2022-11-18T05:29:50.970Z,100417.59
2022-11-18T05:30:53.584Z,100417.53
2022-11-18T05:31:56.991Z,100425.84
2022-11-18T05:32:59.268Z,100421.06
2022-11-18T05:34:03.280Z,100416.50
2022-11-18T05:35:07.877Z,100421.06
2022-11-18T05:36:14.942Z,100430.31
2022-11-18T05:37:18.598Z,100426.72
2022-11-18T05:38:21.263Z,100429.75
2022-11-18T05:39:24.685Z,100435.78
2022-11-18T05:40:27.514Z,100444.75
2022-11-18T05:41:48.106Z,100440.00
2022-11-18T05:43:09.207Z,100451.03
2022-11-18T05:44:12.657Z,100457.06
2022-11-18T05:45:16.315Z,100449.78
2022-11-18T05:46:18.660Z,100456.75
2022-11-18T05:47:25.081Z,100454.78
2022-11-18T05:48:27.579Z,100454.97
2022-11-18T05:49:30.907Z,100452.75
2022-11-18T05:50:35.283Z,100449.91
2022-11-18T05:51:40.053Z,100454.53
2022-11-18T05:52:42.462Z,100456.31
2022-11-18T05:53:45.993Z,100462.13
2022-11-18T05:54:51.382Z,100455.59
2022-11-18T05:56:02.560Z,100466.16
2022-11-18T05:57:06.328Z,100458.13
2022-11-18T05:58:08.659Z,100466.19
2022-11-18T05:59:12.775Z,100460.00
2022-11-18T06:00:16.487Z,100459.44
2022-11-18T06:01:23.273Z,100467.69
2022-11-18T06:02:25.961Z,100461.66
2022-11-18T06:03:33.120Z,100468.25
2022-11-18T06:04:42.863Z,100475.94
2022-11-18T06:05:45.807Z,100469.38
2022-11-18T06:06:54.700Z,100464.38
2022-11-18T06:07:58.632Z,100475.59
2022-11-18T06:09:05.186Z,100465.59
2022-11-18T06:10:08.382Z,100474.63
2022-11-18T06:11:14.227Z,100474.00
2022-11-18T06:12:21.034Z,100469.59
2022-11-18T06:13:26.326Z,100475.94
2022-11-18T06:14:33.907Z,100467.97
2022-11-18T06:15:40.361Z,100469.81
2022-11-18T06:16:49.265Z,100481.78
2022-11-18T06:17:56.516Z,100475.66
2022-11-18T06:19:00.351Z,100471.09
2022-11-18T06:20:04.601Z,100469.88
2022-11-18T06:21:07.166Z,100473.00
2022-11-18T06:22:12.190Z,100471.44
2022-11-18T06:23:14.617Z,100474.53
2022-11-18T06:24:19.883Z,100474.44
2022-11-18T06:25:22.493Z,100481.97
2022-11-18T06:26:25.746Z,100479.63
2022-11-18T06:27:31.451Z,100480.50
2022-11-18T06:28:34.602Z,100483.00
2022-11-18T06:29:38.084Z,100488.19
2022-11-18T06:30:40.479Z,100482.88
2022-11-18T06:31:43.938Z,100487.63
2022-11-18T06:32:46.195Z,100489.59
2022-11-18T06:33:50.105Z,100489.81
2022-11-18T06:34:52.674Z,100489.34
2022-11-18T06:35:56.089Z,100489.00
2022-11-18T06:36:59.597Z,100488.19
2022-11-18T06:38:03.469Z,100491.47
2022-11-18T06:39:07.082Z,100490.59
2022-11-18T06:40:11.002Z,100489.34
2022-11-18T06:41:14.513Z,100489.81
2022-11-18T06:42:32.196Z,100490.13
2022-11-18T06:43:41.827Z,100494.66
2022-11-18T06:44:45.230Z,100499.72
2022-11-18T06:46:09.392Z,100502.84
2022-11-18T06:47:11.861Z,100502.16
2022-11-18T06:48:15.193Z,100498.94
2022-11-18T06:49:18.124Z,100512.91
2022-11-18T06:50:21.655Z,100506.31
2022-11-18T06:51:24.623Z,100501.69
2022-11-18T06:52:29.210Z,100515.34
2022-11-18T06:53:34.542Z,100517.25
2022-11-18T06:54:38.368Z,100521.91
2022-11-18T06:55:40.644Z,100515.63
2022-11-18T06:56:43.913Z,100519.47
2022-11-18T06:57:46.104Z,100526.31
2022-11-18T06:58:53.881Z,100524.75
2022-11-18T07:00:01.680Z,100523.38
2022-11-18T07:01:11.962Z,100521.53
2022-11-18T07:02:15.449Z,100512.03
2022-11-18T07:03:17.814Z,100522.91
2022-11-18T07:04:21.390Z,100527.22
2022-11-18T07:05:23.615Z,100535.88
2022-11-18T07:06:29.018Z,100534.91
2022-11-18T07:07:31.389Z,100535.47
2022-11-18T07:08:38.084Z,100538.88
2022-11-18T07:09:41.605Z,100536.69
2022-11-18T07:10:52.703Z,100527.75
2022-11-18T07:11:56.081Z,100531.50
2022-11-18T07:12:58.306Z,100531.44
2022-11-18T07:14:01.651Z,100531.25
2022-11-18T07:15:04.182Z,100531.69
2022-11-18T07:16:09.708Z,100541.75
2022-11-18T07:17:13.305Z,100535.78
2022-11-18T07:18:15.713Z,100533.41
2022-11-18T07:19:19.432Z,100527.34
2022-11-18T07:20:21.970Z,100529.22
2022-11-18T07:21:26.988Z,100532.25
2022-11-18T07:22:29.357Z,100535.00
2022-11-18T07:23:33.361Z,100532.03
2022-11-18T07:24:38.104Z,100528.13
2022-11-18T07:25:45.149Z,100534.97
2022-11-18T07:26:48.797Z,100531.91
2022-11-18T07:27:51.276Z,100534.44
2022-11-18T07:28:55.555Z,100543.22
2022-11-18T07:29:57.880Z,100541.78
2022-11-18T07:31:05.664Z,100539.50
2022-11-18T07:32:09.017Z,100544.75
2022-11-18T07:33:11.332Z,100550.81
2022-11-18T07:34:15.007Z,100555.16
2022-11-18T07:35:19.141Z,100556.28
2022-11-18T07:36:24.194Z,100551.13
2022-11-18T07:37:27.411Z,100556.59
2022-11-18T07:38:31.037Z,100552.66
2022-11-18T07:39:34.569Z,100558.53
2022-11-18T07:40:38.373Z,100554.66
2022-11-18T07:41:42.119Z,100563.91
2022-11-18T07:42:44.385Z,100562.03
2022-11-18T07:43:49.199Z,100562.59
2022-11-18T07:44:52.657Z,100559.78
2022-11-18T07:45:55.218Z,100564.81
2022-11-18T07:46:58.542Z,100569.88
2022-11-18T07:48:00.863Z,100578.66
2022-11-18T07:49:06.684Z,100567.25
2022-11-18T07:50:10.809Z,100570.09
2022-11-18T07:51:13.829Z,100569.78
2022-11-18T07:52:17.203Z,100576.25
2022-11-18T07:53:19.569Z,100582.56
2022-11-18T07:54:22.910Z,100584.94
2022-11-18T07:55:30.850Z,100578.78
2022-11-18T07:56:36.919Z,100588.44
2022-11-18T07:57:39.332Z,100586.75
2022-11-18T07:58:43.670Z,100580.66
2022-11-18T07:59:45.924Z,100588.78
2022-11-18T08:00:49.544Z,100589.41
2022-11-18T08:01:52.922Z,100593.97
2022-11-18T08:02:55.201Z,100592.38
2022-11-18T08:03:59.176Z,100597.44
2022-11-18T08:05:01.488Z,100591.19
2022-11-18T08:06:06.935Z,100593.66
2022-11-18T08:07:10.255Z,100593.34
2022-11-18T08:08:13.886Z,100597.59
2022-11-18T08:09:17.725Z,100594.97
2022-11-18T08:10:20.282Z,100593.38
2022-11-18T08:11:23.997Z,100609.31
2022-11-18T08:12:27.643Z,100600.72
2022-11-18T08:13:31.295Z,100601.66
2022-11-18T08:14:33.552Z,100603.25
2022-11-18T08:15:36.990Z,100613.38
2022-11-18T08:16:39.358Z,100612.53
2022-11-18T08:17:42.696Z,100614.72
2022-11-18T08:18:45.087Z,100622.16
2022-11-18T08:19:48.793Z,100619.09
2022-11-18T08:20:52.313Z,100627.38
2022-11-18T08:21:55.461Z,100613.81
2022-11-18T08:22:59.252Z,100616.91
2022-11-18T08:24:02.535Z,100609.31
2022-11-18T08:25:05.412Z,100620.47
2022-11-18T08:26:11.208Z,100616.63
2022-11-18T08:27:14.638Z,100618.38
2022-11-18T08:28:18.611Z,100612.81
2022-11-18T08:29:25.270Z,100623.66
2022-11-18T08:30:29.237Z,100617.72
2022-11-18T08:31:33.105Z,100622.81
2022-11-18T08:32:36.380Z,100626.00
2022-11-18T08:33:38.775Z,100615.38
2022-11-18T08:34:42.679Z,100629.22
2022-11-18T08:35:46.024Z,100617.44
2022-11-18T08:36:49.562Z,100627.81
2022-11-18T08:37:51.807Z,100623.97
2022-11-18T08:38:56.544Z,100628.34
2022-11-18T08:40:00.105Z,100627.41
2022-11-18T08:41:03.570Z,100628.16
2022-11-18T08:42:06.931Z,100631.00
2022-11-18T08:43:10.224Z,100629.78
2022-11-18T08:44:16.901Z,100629.06
2022-11-18T08:45:19.381Z,100630.50
2022-11-18T08:46:23.225Z,100632.78
2022-11-18T08:47:26.754Z,100639.47
2022-11-18T08:48:29.093Z,100636.16
2022-11-18T08:49:32.795Z,100635.50
2022-11-18T08:50:34.992Z,100636.56
2022-11-18T08:51:38.291Z,100635.78
2022-11-18T08:52:40.673Z,100639.00
2022-11-18T08:53:44.899Z,100640.69
2022-11-18T08:54:47.110Z,100644.28
2022-11-18T08:55:57.290Z,100642.75
2022-11-18T08:56:59.634Z,100632.66
2022-11-18T08:58:02.900Z,100643.72
2022-11-18T08:59:05.280Z,100640.00
2022-11-18T09:00:11.786Z,100636.22
2022-11-18T09:01:14.514Z,100640.63
2022-11-18T09:02:19.393Z,100645.00
2022-11-18T09:03:21.704Z,100643.06
2022-11-18T09:04:25.011Z,100646.41
2022-11-18T09:05:28.707Z,100642.53
2022-11-18T09:06:32.087Z,100640.91
2022-11-18T09:07:35.419Z,100640.97
2022-11-18T09:08:38.110Z,100649.00
2022-11-18T09:09:41.649Z,100639.63
2022-11-18T09:10:44.609Z,100645.03
2022-11-18T09:11:48.020Z,100644.78
2022-11-18T09:12:50.317Z,100642.25
2022-11-18T09:15:21.770Z,100649.91
2022-11-18T09:16:27.905Z,100643.56
2022-11-18T09:17:31.668Z,100645.41
2022-11-18T09:18:35.052Z,100641.81
2022-11-18T09:19:53.644Z,100643.44
2022-11-18T09:20:57.710Z,100645.16
2022-11-18T09:22:01.187Z,100641.72
2022-11-18T09:23:03.751Z,100635.25
2022-11-18T09:24:07.713Z,100641.19
2022-11-18T09:25:10.763Z,100637.63
2022-11-18T09:26:15.856Z,100634.00
2022-11-18T09:27:19.225Z,100643.28
2022-11-18T09:28:22.238Z,100647.66
2022-11-18T09:29:26.682Z,100641.59
2022-11-18T09:30:30.360Z,100642.03
2022-11-18T09:31:33.826Z,100640.53
2022-11-18T09:32:36.174Z,100642.38
2022-11-18T09:33:40.231Z,100638.50
2022-11-18T09:34:43.765Z,100636.09
2022-11-18T09:35:47.263Z,100635.50
2022-11-18T09:36:50.795Z,100634.34
2022-11-18T09:37:53.103Z,100633.41
2022-11-18T09:38:56.658Z,100628.31
2022-11-18T09:40:00.231Z,100627.06
2022-11-18T09:41:11.364Z,100629.47
2022-11-18T09:42:28.518Z,100638.34
2022-11-18T09:43:43.249Z,100631.00
2022-11-18T09:45:01.081Z,100630.66
2022-11-18T09:46:20.038Z,100637.25
2022-11-18T09:47:28.677Z,100636.75
2022-11-18T09:48:46.526Z,100637.41
2022-11-18T09:49:50.894Z,100633.44
2022-11-18T09:50:56.604Z,100629.00
2022-11-18T09:52:04.365Z,100634.03
2022-11-18T09:53:17.565Z,100622.94
2022-11-18T09:54:22.295Z,100622.66
2022-11-18T09:55:25.565Z,100621.88
2022-11-18T09:56:27.973Z,100620.09
2022-11-18T09:57:39.060Z,100614.28
2022-11-18T09:58:41.473Z,100613.97
2022-11-18T09:59:45.635Z,100610.88
2022-11-18T10:00:49.072Z,100613.69
2022-11-18T10:01:55.566Z,100604.84
2022-11-18T10:03:02.512Z,100613.13
2022-11-18T10:04:05.126Z,100611.38
2022-11-18T10:05:17.134Z,100608.78
2022-11-18T10:06:26.826Z,100607.47
2022-11-18T10:07:41.246Z,100597.72
2022-11-18T10:08:50.457Z,100611.03
2022-11-18T10:09:57.723Z,100599.75
2022-11-18T10:11:08.063Z,100600.50
2022-11-18T10:12:24.619Z,100606.59
2022-11-18T10:13:47.679Z,100597.44
2022-11-18T10:15:02.667Z,100595.75
2022-11-18T10:16:27.872Z,100589.13
2022-11-18T10:17:44.848Z,100581.09
2022-11-18T10:19:00.353Z,100567.72
2022-11-18T10:20:26.866Z,100583.41
2022-11-18T10:21:44.663Z,100581.75
2022-11-18T10:22:55.251Z,100599.84
2022-11-18T10:24:05.443Z,100615.97
2022-11-18T10:25:15.520Z,100618.19
2022-11-18T10:26:32.534Z,100624.69
2022-11-18T10:27:39.568Z,100631.56
2022-11-18T10:28:42.301Z,100642.16
2022-11-18T10:29:49.726Z,100645.94
2022-11-18T10:30:54.144Z,100654.34
2022-11-18T10:32:04.318Z,100649.53
2022-11-18T10:33:24.610Z,100652.88
2022-11-18T10:34:28.027Z,100660.19
2022-11-18T10:35:34.463Z,100660.31
2022-11-18T10:36:38.085Z,100662.75
2022-11-18T10:38:09.034Z,100663.88
2022-11-18T10:39:14.316Z,100667.03
2022-11-18T10:40:27.999Z,100672.59
2022-11-18T10:41:37.772Z,100664.72
2022-11-18T10:42:46.066Z,100665.97
2022-11-18T10:43:50.445Z,100668.72
2022-11-18T10:44:53.678Z,100663.75
2022-11-18T10:45:56.955Z,100662.56
2022-11-18T10:47:39.700Z,100654.28
2022-11-18T10:48:43.340Z,100659.25
2022-11-18T10:49:46.579Z,100658.09
2022-11-18T10:50:55.489Z,100651.13
2022-11-18T10:52:09.474Z,100660.91
2022-11-18T10:53:31.704Z,100652.69
2022-11-18T10:54:34.173Z,100654.97
2022-11-18T10:55:37.471Z,100649.16
2022-11-18T10:58:17.393Z,100635.09
2022-11-18T10:59:29.224Z,100641.44
2022-11-18T11:00:44.926Z,100636.66
2022-11-18T11:01:48.067Z,100649.84
2022-11-18T11:01:59.008Z,100637.31
2022-11-18T11:03:02.682Z,100636.53
2022-11-18T11:04:19.437Z,100635.50
2022-11-18T11:05:23.405Z,100630.84
2022-11-18T11:06:37.650Z,100632.38
2022-11-18T11:07:40.573Z,100629.84
2022-11-18T11:08:50.080Z,100631.81
2022-11-18T11:10:19.127Z,100620.78
2022-11-18T11:11:26.737Z,100618.41
2022-11-18T11:12:32.973Z,100629.66
2022-11-18T11:13:40.815Z,100620.00
2022-11-18T11:14:52.300Z,100622.66
2022-11-18T11:15:58.298Z,100621.69
2022-11-18T11:17:07.607Z,100616.56
2022-11-18T11:18:34.166Z,100623.56
2022-11-18T11:19:45.879Z,100617.13
2022-11-18T11:20:48.288Z,100625.66
2022-11-18T11:21:52.142Z,100619.53
2022-11-18T11:22:55.063Z,100620.69
2022-11-18T11:23:59.057Z,100605.81
2022-11-18T11:25:02.290Z,100602.66
2022-11-18T11:29:15.908Z,100599.38
2022-11-18T11:30:21.500Z,100591.75
2022-11-18T11:31:34.869Z,100590.53
2022-11-18T11:32:54.928Z,100592.06
2022-11-18T11:34:03.229Z,100590.13
2022-11-18T11:35:16.551Z,100581.25
2022-11-18T11:36:33.060Z,100588.00
2022-11-18T11:37:52.076Z,100578.84
2022-11-18T11:39:04.679Z,100585.06
2022-11-18T11:40:22.572Z,100577.31
2022-11-18T11:41:26.620Z,100566.41
2022-11-18T11:42:44.845Z,100570.91
2022-11-18T11:44:05.688Z,100565.31
2022-11-18T11:45:26.091Z,100565.31
2022-11-18T11:46:37.493Z,100563.19
2022-11-18T11:47:50.798Z,100560.03
2022-11-18T11:49:00.699Z,100563.09
2022-11-18T11:50:14.624Z,100560.53
2022-11-18T11:51:29.130Z,100564.91
2022-11-18T11:52:43.787Z,100570.66
2022-11-18T11:54:22.041Z,100563.09
2022-11-18T11:55:30.133Z,100568.75
2022-11-18T11:56:37.141Z,100576.03
2022-11-18T11:57:52.169Z,100571.28
2022-11-18T11:59:19.384Z,100571.75
2022-11-18T12:00:23.222Z,100573.06
2022-11-18T12:01:35.331Z,100571.75
2022-11-18T12:03:02.198Z,100567.47
2022-11-18T12:04:19.998Z,100559.94
2022-11-18T12:05:34.442Z,100557.09
2022-11-18T12:06:38.139Z,100550.31
2022-11-18T12:07:46.438Z,100549.53
2022-11-18T12:09:06.508Z,100550.16
2022-11-18T12:10:26.049Z,100550.25
2022-11-18T12:11:37.150Z,100544.56
2022-11-18T12:12:51.964Z,100549.44
2022-11-18T12:14:03.249Z,100552.81
2022-11-18T12:15:17.146Z,100562.03
2022-11-18T12:16:30.991Z,100570.19
2022-11-18T12:17:43.807Z,100559.09
2022-11-18T12:18:51.579Z,100566.75
2022-11-18T12:19:54.943Z,100557.06
2022-11-18T12:20:59.816Z,100561.09
2022-11-18T12:22:04.974Z,100561.75
2022-11-18T12:23:13.244Z,100563.81
2022-11-18T12:24:31.425Z,100561.03
2022-11-18T12:25:56.916Z,100552.88
2022-11-18T12:27:00.852Z,100553.88
2022-11-18T12:28:04.351Z,100555.59
2022-11-18T12:29:25.776Z,100556.06
2022-11-18T12:30:29.187Z,100564.09
2022-11-18T12:31:36.113Z,100568.25
2022-11-18T12:32:43.005Z,100561.88
2022-11-18T12:33:48.215Z,100571.81
2022-11-18T12:34:58.958Z,100572.75
2022-11-18T12:36:03.835Z,100570.03
2022-11-18T12:37:46.287Z,100567.13
2022-11-18T12:38:49.984Z,100566.88
2022-11-18T12:40:01.129Z,100558.84
2022-11-18T12:41:24.729Z,100556.22
2022-11-18T12:43:06.766Z,100558.13
2022-11-18T12:44:11.119Z,100555.53
2022-11-18T12:45:54.187Z,100554.06
2022-11-18T12:46:59.499Z,100558.66
2022-11-18T12:48:01.992Z,100561.41